createdAt,value
2018-03-28T00:02:11.353Z,1.00
2018-03-28T00:04:38.876Z,0.90
2018-03-28T00:07:06.390Z,0.90
2018-03-28T00:09:33.921Z,0.90
2018-03-28T00:12:01.425Z,0.90
2018-03-28T00:14:28.929Z,0.90
2018-03-28T00:16:56.437Z,0.80
2018-03-28T00:19:23.944Z,0.70
2018-03-28T00:21:52.250Z,0.70
2018-03-28T00:24:19.755Z,0.70
2018-03-28T00:26:47.386Z,0.70
2018-03-28T00:29:14.889Z,0.70
2018-03-28T00:31:43.153Z,0.60
2018-03-28T00:34:10.651Z,0.60
2018-03-28T00:36:38.140Z,0.60
2018-03-28T00:39:05.678Z,0.50
2018-03-28T00:41:33.171Z,0.50
2018-03-28T00:44:00.700Z,0.50
2018-03-28T00:46:29.004Z,0.50
2018-03-28T00:48:56.508Z,0.50
2018-03-28T00:51:35.689Z,0.40
2018-03-28T00:54:03.208Z,0.40
2018-03-28T00:56:30.703Z,0.40
2018-03-28T00:58:58.187Z,0.40
2018-03-28T01:01:25.684Z,0.30
2018-03-28T01:03:54.360Z,0.30
2018-03-28T01:06:22.621Z,0.30
2018-03-28T01:08:50.940Z,0.30
2018-03-28T01:11:18.444Z,0.20
2018-03-28T01:13:45.956Z,0.20
2018-03-28T01:16:13.439Z,0.20
2018-03-28T01:18:41.601Z,0.30
2018-03-28T01:21:09.106Z,0.30
2018-03-28T01:23:36.624Z,0.20
2018-03-28T01:26:04.124Z,0.20
2018-03-28T01:28:31.628Z,0.20
2018-03-28T01:30:59.137Z,0.10
2018-03-28T01:33:26.748Z,0.10
2018-03-28T01:35:54.243Z,0.10
2018-03-28T01:38:21.749Z,0.10
2018-03-28T01:40:49.256Z,0.10
2018-03-28T01:43:16.745Z,0.10
2018-03-28T01:45:45.029Z,0.10
2018-03-28T01:48:13.288Z,0.00
2018-03-28T01:50:41.570Z,0.00
2018-03-28T01:53:09.066Z,0.00
2018-03-28T01:55:36.626Z,0.00
2018-03-28T01:58:04.177Z,0.10
2018-03-28T02:00:31.676Z,0.10
2018-03-28T02:02:59.179Z,0.10
2018-03-28T02:05:27.479Z,0.20
2018-03-28T02:07:55.008Z,0.20
2018-03-28T02:10:23.275Z,0.30
2018-03-28T02:12:50.811Z,0.20
2018-03-28T02:15:19.880Z,0.30
2018-03-28T02:17:47.374Z,0.30
2018-03-28T02:20:14.900Z,0.30
2018-03-28T02:22:42.404Z,0.30
2018-03-28T02:25:09.929Z,0.30
2018-03-28T02:27:37.438Z,0.40
2018-03-28T02:30:05.790Z,0.40
2018-03-28T02:32:33.294Z,0.40
2018-03-28T02:35:00.842Z,0.50
2018-03-28T02:40:02.277Z,0.50
2018-03-28T02:42:29.775Z,0.50
2018-03-28T02:44:57.283Z,0.50
2018-03-28T02:47:24.799Z,0.50
2018-03-28T02:49:52.328Z,0.50
2018-03-28T02:52:20.597Z,0.50
2018-03-28T02:54:48.108Z,0.50
2018-03-28T02:57:15.607Z,0.50
2018-03-28T02:59:43.125Z,0.60
2018-03-28T03:02:10.773Z,0.60
2018-03-28T03:04:38.311Z,0.60
2018-03-28T03:07:06.560Z,0.70
2018-03-28T03:09:34.082Z,0.70
2018-03-28T03:12:01.563Z,0.70
2018-03-28T03:14:29.095Z,0.70
2018-03-28T03:16:56.598Z,0.70
2018-03-28T03:19:24.177Z,0.80
2018-03-28T03:21:52.434Z,0.70
2018-03-28T03:24:19.937Z,0.70
2018-03-28T03:26:47.444Z,0.80
2018-03-28T03:29:14.951Z,0.80
2018-03-28T03:31:42.466Z,0.80
2018-03-28T03:34:09.981Z,0.80
2018-03-28T03:36:37.475Z,0.80
2018-03-28T03:39:05.016Z,0.80
2018-03-28T03:41:32.532Z,0.80
2018-03-28T03:44:00.793Z,0.90
2018-03-28T03:46:29.075Z,0.80
2018-03-28T03:48:57.349Z,0.90
2018-03-28T03:51:25.606Z,0.90
2018-03-28T03:53:53.136Z,0.90
2018-03-28T03:56:20.641Z,0.90
2018-03-28T03:58:48.922Z,0.90
2018-03-28T04:01:17.200Z,0.90
2018-03-28T04:03:45.472Z,0.90
2018-03-28T04:06:13.748Z,0.90
2018-03-28T04:08:42.007Z,0.90
2018-03-28T04:11:09.546Z,0.90
2018-03-28T04:13:37.049Z,0.90
2018-03-28T04:16:05.316Z,0.90
2018-03-28T04:18:33.606Z,0.90
2018-03-28T04:21:01.883Z,0.90
2018-03-28T04:23:29.835Z,0.90
2018-03-28T04:25:57.356Z,0.90
2018-03-28T04:28:24.856Z,0.90
2018-03-28T04:30:53.131Z,1.00
2018-03-28T04:33:20.636Z,1.00
2018-03-28T04:35:48.159Z,1.00
2018-03-28T04:38:16.415Z,1.00
2018-03-28T04:40:43.926Z,1.00
2018-03-28T04:43:11.448Z,1.00
2018-03-28T04:45:39.723Z,1.00
2018-03-28T04:48:07.992Z,1.00
2018-03-28T04:50:35.496Z,1.00
2018-03-28T04:53:03.154Z,1.00
2018-03-28T04:55:30.684Z,1.00
2018-03-28T04:57:58.942Z,1.00
2018-03-28T05:00:26.458Z,1.00
2018-03-28T05:02:53.964Z,1.00
2018-03-28T05:05:21.472Z,1.10
2018-03-28T05:07:48.965Z,1.10
2018-03-28T05:10:16.501Z,1.10
2018-03-28T05:12:43.988Z,1.10
2018-03-28T05:15:11.533Z,1.10
2018-03-28T05:17:39.904Z,1.10
2018-03-28T05:20:07.416Z,1.10
2018-03-28T05:22:35.718Z,1.10
2018-03-28T05:25:03.208Z,1.10
2018-03-28T05:27:30.711Z,1.10
2018-03-28T05:29:59.092Z,1.10
2018-03-28T05:32:26.605Z,1.10
2018-03-28T05:34:54.104Z,1.10
2018-03-28T05:37:22.401Z,1.20
2018-03-28T05:39:49.911Z,1.10
2018-03-28T05:42:17.429Z,1.50
2018-03-28T05:44:44.920Z,2.10
2018-03-28T05:47:12.435Z,2.20
2018-03-28T05:49:39.965Z,2.50
2018-03-28T05:52:08.247Z,2.30
2018-03-28T05:54:36.563Z,2.00
2018-03-28T05:57:04.060Z,1.90
2018-03-28T05:59:31.559Z,1.80
2018-03-28T06:01:59.195Z,1.60
2018-03-28T06:04:27.477Z,1.50
2018-03-28T06:06:55.752Z,1.50
2018-03-28T06:09:24.027Z,1.50
2018-03-28T06:11:52.327Z,1.40
2018-03-28T06:14:19.839Z,1.40
2018-03-28T06:16:47.348Z,1.30
2018-03-28T06:19:14.845Z,1.30
2018-03-28T06:21:43.868Z,1.30
2018-03-28T06:24:11.404Z,1.30
2018-03-28T06:26:38.893Z,1.20
2018-03-28T06:29:07.160Z,1.20
2018-03-28T06:31:34.683Z,1.10
2018-03-28T06:34:02.204Z,1.20
2018-03-28T06:36:29.769Z,1.20
2018-03-28T06:38:57.231Z,1.30
2018-03-28T06:41:24.743Z,1.30
2018-03-28T06:43:52.628Z,1.20
2018-03-28T06:46:20.931Z,1.20
2018-03-28T06:48:49.304Z,1.20
2018-03-28T06:51:17.125Z,1.20
2018-03-28T06:53:44.645Z,1.20
2018-03-28T06:56:12.147Z,1.20
2018-03-28T06:58:39.644Z,1.20
2018-03-28T07:01:07.251Z,1.20
2018-03-28T07:03:34.964Z,1.20
2018-03-28T07:06:03.239Z,1.20
2018-03-28T07:08:31.553Z,1.30
2018-03-28T07:10:59.078Z,1.30
2018-03-28T07:13:27.355Z,1.30
2018-03-28T07:15:55.703Z,1.30
2018-03-28T07:18:23.256Z,1.30
2018-03-28T07:20:50.767Z,1.70
2018-03-28T07:23:18.265Z,1.50
2018-03-28T07:25:45.805Z,1.50
2018-03-28T07:28:13.300Z,1.50
2018-03-28T07:30:40.813Z,1.50
2018-03-28T07:33:08.324Z,1.50
2018-03-28T07:35:35.830Z,1.50
2018-03-28T07:38:03.367Z,1.50
2018-03-28T07:40:30.911Z,1.60
2018-03-28T07:42:59.186Z,1.60
2018-03-28T07:45:27.865Z,1.60
2018-03-28T07:47:56.854Z,1.60
2018-03-28T07:50:24.337Z,1.50
2018-03-28T07:52:52.598Z,1.50
2018-03-28T07:55:20.874Z,2.10
2018-03-28T07:57:49.154Z,2.00
2018-03-28T08:00:17.430Z,1.90
2018-03-28T08:02:45.713Z,1.80
2018-03-28T08:05:13.279Z,1.80
2018-03-28T08:07:40.791Z,1.90
2018-03-28T08:10:08.307Z,1.90
2018-03-28T08:12:35.812Z,2.00
2018-03-28T08:15:03.340Z,1.90
2018-03-28T08:17:30.859Z,1.90
2018-03-28T08:19:59.147Z,2.10
2018-03-28T08:22:27.423Z,2.20
2018-03-28T08:24:56.409Z,2.20
2018-03-28T08:27:24.708Z,2.20
2018-03-28T08:29:52.200Z,2.20
2018-03-28T08:32:19.740Z,2.20
2018-03-28T08:34:47.259Z,2.20
2018-03-28T08:37:15.531Z,2.20
2018-03-28T08:39:43.796Z,2.30
2018-03-28T08:42:12.815Z,2.20
2018-03-28T08:44:41.119Z,2.30
2018-03-28T08:47:08.622Z,2.20
2018-03-28T08:49:36.945Z,2.30
2018-03-28T08:52:04.524Z,2.20
2018-03-28T08:54:32.091Z,2.30
2018-03-28T08:56:59.614Z,2.30
2018-03-28T08:59:27.998Z,2.40
2018-03-28T09:01:55.561Z,2.40
2018-03-28T09:04:23.056Z,2.50
2018-03-28T09:06:50.575Z,2.50
2018-03-28T09:09:18.080Z,2.60
2018-03-28T09:11:45.592Z,2.70
2018-03-28T09:14:13.121Z,2.80
2018-03-28T09:16:40.640Z,3.00
2018-03-28T09:19:08.216Z,3.00
2018-03-28T09:21:35.805Z,3.10
2018-03-28T09:24:04.067Z,3.20
2018-03-28T09:26:31.714Z,3.20
2018-03-28T09:28:59.203Z,3.30
2018-03-28T09:31:26.722Z,3.30
2018-03-28T09:33:54.592Z,3.40
2018-03-28T09:36:22.086Z,3.40
2018-03-28T09:38:49.670Z,3.50
2018-03-28T09:41:17.937Z,3.60
2018-03-28T09:43:46.220Z,3.50
2018-03-28T09:46:15.247Z,3.60
2018-03-28T09:48:42.763Z,3.50
2018-03-28T09:51:11.080Z,3.50
2018-03-28T09:53:38.598Z,3.50
2018-03-28T09:56:06.948Z,4.80
2018-03-28T09:58:34.402Z,4.80
2018-03-28T10:01:07.735Z,4.50
2018-03-28T10:03:41.827Z,4.20
2018-03-28T10:06:09.340Z,4.20
2018-03-28T10:08:36.838Z,4.10
2018-03-28T10:11:04.406Z,4.10
2018-03-28T10:13:31.912Z,4.80
2018-03-28T10:15:59.414Z,4.60
2018-03-28T10:18:26.924Z,4.40
2018-03-28T10:20:54.428Z,4.20
2018-03-28T10:23:21.920Z,4.20
2018-03-28T10:25:50.210Z,4.10
2018-03-28T10:28:17.843Z,4.10
2018-03-28T10:30:45.346Z,4.10
2018-03-28T10:33:12.861Z,4.10
2018-03-28T10:35:40.470Z,4.10
2018-03-28T10:38:08.030Z,4.10
2018-03-28T10:40:35.595Z,4.10
2018-03-28T10:43:03.094Z,4.10
2018-03-28T10:45:30.597Z,4.10
2018-03-28T10:47:58.118Z,4.20
2018-03-28T10:50:25.699Z,4.10
2018-03-28T10:52:54.199Z,4.20
2018-03-28T10:55:21.699Z,4.20
2018-03-28T10:57:49.198Z,4.10
2018-03-28T11:00:17.491Z,4.00
2018-03-28T11:02:45.048Z,4.00
2018-03-28T11:05:12.646Z,4.00
2018-03-28T11:07:40.237Z,4.00
2018-03-28T11:10:07.818Z,4.00
2018-03-28T11:12:35.386Z,3.90
2018-03-28T11:15:02.911Z,3.90
2018-03-28T11:17:30.426Z,3.90
2018-03-28T11:19:57.952Z,3.90
2018-03-28T11:22:26.239Z,3.90
2018-03-28T11:24:53.885Z,3.90
2018-03-28T11:27:22.168Z,3.70
2018-03-28T11:29:50.437Z,3.70
2018-03-28T11:32:18.749Z,3.80
2018-03-28T11:34:46.281Z,3.80
2018-03-28T11:37:14.551Z,3.60
2018-03-28T11:39:42.840Z,3.40
2018-03-28T11:42:10.350Z,3.40
2018-03-28T11:44:37.862Z,3.50
2018-03-28T11:47:05.409Z,3.50
2018-03-28T11:49:33.696Z,3.50
2018-03-28T11:52:01.381Z,3.40
2018-03-28T11:54:28.904Z,3.40
2018-03-28T11:56:57.197Z,3.40
2018-03-28T11:59:24.772Z,3.40
2018-03-28T12:01:52.322Z,3.40
2018-03-28T12:04:19.865Z,3.40
2018-03-28T12:06:47.399Z,3.40
2018-03-28T12:09:14.996Z,3.20
2018-03-28T12:11:42.567Z,3.20
2018-03-28T12:14:10.126Z,3.20
2018-03-28T12:16:37.670Z,3.10
2018-03-28T12:19:05.209Z,3.00
2018-03-28T12:21:33.532Z,2.90
2018-03-28T12:24:01.073Z,2.90
2018-03-28T12:26:28.632Z,2.80
2018-03-28T12:28:56.157Z,2.80
2018-03-28T12:31:25.224Z,2.80
2018-03-28T12:33:52.728Z,2.80
2018-03-28T12:36:20.999Z,2.80
2018-03-28T12:38:49.300Z,2.80
2018-03-28T12:41:16.856Z,2.80
2018-03-28T12:43:44.413Z,2.80
2018-03-28T12:46:11.933Z,2.80
2018-03-28T12:48:39.533Z,2.80
2018-03-28T12:51:07.061Z,2.70
2018-03-28T12:53:35.367Z,2.60
2018-03-28T12:56:03.648Z,2.70
2018-03-28T12:58:31.153Z,2.70
2018-03-28T13:01:00.175Z,2.70
2018-03-28T13:03:28.451Z,2.70
2018-03-28T13:05:56.744Z,2.70
2018-03-28T13:08:24.312Z,2.70
2018-03-28T13:10:51.870Z,2.70
2018-03-28T13:13:19.804Z,2.80
2018-03-28T13:15:47.334Z,2.90
2018-03-28T13:18:14.848Z,2.90
2018-03-28T13:20:42.388Z,2.80
2018-03-28T13:23:09.915Z,2.90
2018-03-28T13:25:37.485Z,2.80
2018-03-28T13:28:05.003Z,2.80
2018-03-28T13:30:32.540Z,2.80
2018-03-28T13:33:00.821Z,2.90
2018-03-28T13:35:28.423Z,2.90
2018-03-28T13:37:55.984Z,2.80
2018-03-28T13:40:23.512Z,2.80
2018-03-28T13:42:51.124Z,2.80
2018-03-28T13:45:18.684Z,2.80
2018-03-28T13:47:46.302Z,2.90
2018-03-28T13:50:14.333Z,2.90
2018-03-28T13:52:41.844Z,2.80
2018-03-28T13:55:09.415Z,2.90
2018-03-28T13:57:36.923Z,2.80
2018-03-28T14:00:06.127Z,2.80
2018-03-28T14:02:34.395Z,2.80
2018-03-28T14:05:01.940Z,2.70
2018-03-28T14:07:29.449Z,2.70
2018-03-28T14:09:56.957Z,2.70
2018-03-28T14:12:24.503Z,2.80
2018-03-28T14:14:52.007Z,2.90
2018-03-28T14:17:20.290Z,2.90
2018-03-28T14:19:47.796Z,2.90
2018-03-28T14:22:15.400Z,2.80
2018-03-28T14:24:43.714Z,2.80
2018-03-28T14:27:11.240Z,2.80
2018-03-28T14:29:39.520Z,2.80
2018-03-28T14:32:07.036Z,2.80
2018-03-28T14:34:34.543Z,2.80
2018-03-28T14:37:02.065Z,2.80
2018-03-28T14:39:29.565Z,2.80
2018-03-28T14:41:57.154Z,2.80
2018-03-28T14:44:24.649Z,2.80
2018-03-28T14:46:52.932Z,2.80
2018-03-28T14:49:21.232Z,2.80
2018-03-28T14:51:48.736Z,2.80
2018-03-28T14:54:16.252Z,2.80
2018-03-28T14:56:43.771Z,2.80
2018-03-28T14:59:11.282Z,2.90
2018-03-28T15:01:38.811Z,2.90
2018-03-28T15:04:07.079Z,2.90
2018-03-28T15:06:35.499Z,2.80
2018-03-28T15:09:03.022Z,2.80
2018-03-28T15:11:31.324Z,2.90
2018-03-28T15:13:59.041Z,2.80
2018-03-28T15:16:26.590Z,2.90
2018-03-28T15:18:54.113Z,2.90
2018-03-28T15:21:21.646Z,2.90
2018-03-28T15:23:50.048Z,2.90
2018-03-28T15:26:17.657Z,2.90
2018-03-28T15:28:45.258Z,2.90
2018-03-28T15:31:12.802Z,2.90
2018-03-28T15:33:41.108Z,2.80
2018-03-28T15:36:08.636Z,2.80
2018-03-28T15:38:36.929Z,2.80
2018-03-28T15:41:04.486Z,2.80
2018-03-28T15:43:32.979Z,2.80
2018-03-28T15:46:00.503Z,2.80
2018-03-28T15:48:28.816Z,2.80
2018-03-28T15:50:56.440Z,2.80
2018-03-28T15:53:24.720Z,2.90
2018-03-28T15:55:53.021Z,2.80
2018-03-28T15:58:20.575Z,2.80
2018-03-28T16:00:48.914Z,2.80
2018-03-28T16:03:16.440Z,2.80
2018-03-28T16:05:44.073Z,2.80
2018-03-28T16:08:12.353Z,2.80
2018-03-28T16:10:39.901Z,2.80
2018-03-28T16:13:08.212Z,2.80
2018-03-28T16:15:35.753Z,2.80
2018-03-28T16:18:03.297Z,2.80
2018-03-28T16:20:31.582Z,2.90
2018-03-28T16:22:59.889Z,2.90
2018-03-28T16:25:27.408Z,2.90
2018-03-28T16:27:55.764Z,2.80
2018-03-28T16:30:23.289Z,2.80
2018-03-28T16:32:50.815Z,2.80
2018-03-28T16:35:19.099Z,2.80
2018-03-28T16:37:46.620Z,2.80
2018-03-28T16:40:14.138Z,2.80
2018-03-28T16:42:41.670Z,2.70
2018-03-28T16:45:09.196Z,2.80
2018-03-28T16:47:36.738Z,2.80
2018-03-28T16:50:04.294Z,2.80
2018-03-28T16:52:31.821Z,2.80
2018-03-28T16:54:59.334Z,2.80
2018-03-28T16:57:26.984Z,2.90
2018-03-28T16:59:54.536Z,2.80
2018-03-28T17:02:22.063Z,2.80
2018-03-28T17:04:49.568Z,2.80
2018-03-28T17:07:17.156Z,2.70
2018-03-28T17:09:44.653Z,2.70
2018-03-28T17:12:12.203Z,2.80
2018-03-28T17:14:39.707Z,2.70
2018-03-28T17:17:07.225Z,2.70
2018-03-28T17:19:34.764Z,2.70
2018-03-28T17:22:02.311Z,2.70
2018-03-28T17:24:30.658Z,2.80
2018-03-28T17:26:58.175Z,2.70
2018-03-28T17:29:25.714Z,2.80
2018-03-28T17:31:54.030Z,2.80
2018-03-28T17:34:24.572Z,2.70
2018-03-28T17:36:52.161Z,2.80
2018-03-28T17:39:19.675Z,2.80
2018-03-28T17:41:47.240Z,2.80
2018-03-28T17:44:14.764Z,2.80
2018-03-28T17:46:43.053Z,2.70
2018-03-28T17:49:10.558Z,2.70
2018-03-28T17:51:38.084Z,2.80
2018-03-28T17:54:05.599Z,2.80
2018-03-28T17:56:33.884Z,2.80
2018-03-28T17:59:02.218Z,2.70
2018-03-28T18:01:29.772Z,2.70
2018-03-28T18:03:57.290Z,2.70
2018-03-28T18:06:25.575Z,2.70
2018-03-28T18:08:53.096Z,2.60
2018-03-28T18:11:22.133Z,2.80
2018-03-28T18:13:49.671Z,2.80
2018-03-28T18:16:18.033Z,3.70
2018-03-28T18:18:45.543Z,3.70
2018-03-28T18:21:13.195Z,3.90
2018-03-28T18:23:40.780Z,3.50
2018-03-28T18:26:08.595Z,3.30
2018-03-28T18:28:36.130Z,3.10
2018-03-28T18:31:03.651Z,3.00
2018-03-28T18:33:31.173Z,3.00
2018-03-28T18:35:59.448Z,2.80
2018-03-28T18:38:27.721Z,2.90
2018-03-28T18:40:55.289Z,2.80
2018-03-28T18:43:23.588Z,3.10
2018-03-28T18:45:51.106Z,3.00
2018-03-28T18:48:19.382Z,2.90
2018-03-28T18:50:46.899Z,2.90
2018-03-28T18:53:14.444Z,3.00
2018-03-28T18:55:42.077Z,2.90
2018-03-28T18:58:09.609Z,3.00
2018-03-28T19:00:37.180Z,3.00
2018-03-28T19:03:04.702Z,3.00
2018-03-28T19:05:32.396Z,2.90
2018-03-28T19:08:00.126Z,3.00
2018-03-28T19:10:27.632Z,2.90
2018-03-28T19:12:55.385Z,2.90
2018-03-28T19:15:23.004Z,3.00
2018-03-28T19:17:50.552Z,3.00
2018-03-28T19:20:18.072Z,3.00
2018-03-28T19:22:45.612Z,3.00
2018-03-28T19:25:13.124Z,2.90
2018-03-28T19:27:40.756Z,2.90
2018-03-28T19:30:09.057Z,3.00
2018-03-28T19:32:36.593Z,2.90
2018-03-28T19:35:04.867Z,3.00
2018-03-28T19:37:32.440Z,2.90
2018-03-28T19:40:00.039Z,3.00
2018-03-28T19:42:27.544Z,3.00
2018-03-28T19:44:55.068Z,3.10
2018-03-28T19:47:22.588Z,3.10
2018-03-28T19:49:50.124Z,3.00
2018-03-28T19:52:17.628Z,3.10
2018-03-28T19:54:45.147Z,3.10
2018-03-28T19:57:12.683Z,3.10
2018-03-28T19:59:40.420Z,3.10
2018-03-28T20:02:08.019Z,3.20
2018-03-28T20:04:35.516Z,4.70
2018-03-28T20:07:03.064Z,4.50
2018-03-28T20:09:31.439Z,3.90
2018-03-28T20:11:58.963Z,3.80
2018-03-28T20:14:26.492Z,3.70
2018-03-28T20:16:54.008Z,3.60
2018-03-28T20:19:21.576Z,3.50
2018-03-28T20:21:49.093Z,3.50
2018-03-28T20:24:16.598Z,3.50
2018-03-28T20:26:44.992Z,3.40
2018-03-28T20:29:12.510Z,3.40
2018-03-28T20:31:41.217Z,3.40
2018-03-28T20:34:08.858Z,3.50
2018-03-28T20:36:36.435Z,3.40
2018-03-28T20:39:03.939Z,3.40
2018-03-28T20:41:31.448Z,3.40
2018-03-28T20:43:58.995Z,3.40
2018-03-28T20:46:26.561Z,3.40
2018-03-28T20:48:54.067Z,3.40
2018-03-28T20:51:21.679Z,3.40
2018-03-28T20:53:49.190Z,3.40
2018-03-28T20:56:16.712Z,3.40
2018-03-28T20:58:44.406Z,3.40
2018-03-28T21:01:11.945Z,3.40
2018-03-28T21:03:39.523Z,3.50
2018-03-28T21:06:07.026Z,3.50
2018-03-28T21:08:34.627Z,3.50
2018-03-28T21:11:02.897Z,3.60
2018-03-28T21:13:31.152Z,3.80
2018-03-28T21:15:59.428Z,5.00
2018-03-28T21:18:26.944Z,5.00
2018-03-28T21:20:54.460Z,4.90
2018-03-28T21:23:22.808Z,4.30
2018-03-28T21:25:50.427Z,4.30
2018-03-28T21:28:17.923Z,4.20
2018-03-28T21:30:45.463Z,4.10
2018-03-28T21:33:12.960Z,3.90
2018-03-28T21:35:40.485Z,3.90
2018-03-28T21:38:08.001Z,3.90
2018-03-28T21:40:36.306Z,3.90
2018-03-28T21:43:03.812Z,3.90
2018-03-28T21:45:31.323Z,3.90
2018-03-28T21:47:58.866Z,3.90
2018-03-28T21:50:26.383Z,3.90
2018-03-28T21:52:53.900Z,3.90
2018-03-28T21:55:21.421Z,3.90
2018-03-28T21:57:49.716Z,3.90
2018-03-28T22:00:17.248Z,3.90
2018-03-28T22:02:44.754Z,3.90
2018-03-28T22:05:12.275Z,3.90
2018-03-28T22:07:40.570Z,3.90
2018-03-28T22:10:08.078Z,3.90
2018-03-28T22:12:35.607Z,3.90
2018-03-28T22:15:03.105Z,4.00
2018-03-28T22:17:30.631Z,4.00
2018-03-28T22:19:58.174Z,4.00
2018-03-28T22:22:25.714Z,4.00
2018-03-28T22:24:54.000Z,4.00
2018-03-28T22:27:21.562Z,4.00
2018-03-28T22:29:49.826Z,4.00
2018-03-28T22:32:18.116Z,4.00
2018-03-28T22:34:45.638Z,4.00
2018-03-28T22:37:13.167Z,4.00
2018-03-28T22:39:40.667Z,4.00
2018-03-28T22:42:08.173Z,4.00
2018-03-28T22:44:35.669Z,4.00
2018-03-28T22:47:03.217Z,4.00
2018-03-28T22:49:30.745Z,4.00
2018-03-28T22:51:58.250Z,4.00
2018-03-28T22:54:25.753Z,4.10
2018-03-28T22:56:53.269Z,4.10
2018-03-28T22:59:20.764Z,4.10
2018-03-28T23:01:49.042Z,4.10
2018-03-28T23:04:16.546Z,4.10
2018-03-28T23:06:44.078Z,4.10
2018-03-28T23:09:11.594Z,4.10
2018-03-28T23:11:39.955Z,4.20
2018-03-28T23:14:07.446Z,4.20
2018-03-28T23:16:35.953Z,4.20
2018-03-28T23:19:03.561Z,4.20
2018-03-28T23:21:31.920Z,4.10
2018-03-28T23:24:00.168Z,4.10
2018-03-28T23:26:27.794Z,4.20
2018-03-28T23:28:56.144Z,4.20
2018-03-28T23:31:23.741Z,4.20
2018-03-28T23:33:51.388Z,4.20
2018-03-28T23:36:19.824Z,4.30
2018-03-28T23:38:47.412Z,4.20
2018-03-28T23:41:15.773Z,4.30
2018-03-28T23:43:43.360Z,4.20
2018-03-28T23:46:11.801Z,4.30
2018-03-28T23:48:39.556Z,4.20
2018-03-28T23:51:07.146Z,4.30
2018-03-28T23:53:34.772Z,4.30
2018-03-28T23:56:02.370Z,4.30
2018-03-28T23:58:30.060Z,4.40
